George — WDE8076 — position and weather

sailwx.info

Track history (hours):
 
Tides and Currents Weather Stations Pressure Air Temp Water Temp Dewpoint Dewpoint Depression Visibility Wind Speed Wind Dir Waves Ship Positions

George

Owner: Harbor Docking & Towing Co LLC, Houston, TX. More information available from US FCC via Universal Licensing System and Coast Guard Vessel Documentation Center.

Last reported at 2017-Sep-23 23:29 UTC. Time now 2017-Sep-23 23:41 UTC.
Position N 30°13' W 093°15'.

Length 33 m.

Type: Tug. MMSI: 367401290.

Date/timePositionNaut miles runAvg speedWind from/ knotsBaromVisibWave heightAir tempDewpointWater temp
2017-Sep-23 23:29N 30°13' W 093°15'0 0.0
2017-Sep-23 23:00N 30°13' W 093°15'0 0.0
2017-Sep-23 22:30N 30°13' W 093°15'0 0.0
2017-Sep-23 22:00N 30°13' W 093°15'0 0.0
2017-Sep-23 21:30N 30°13' W 093°15'0 0.0
2017-Sep-23 21:00N 30°13' W 093°15'0 0.0
2017-Sep-23 20:30N 30°13' W 093°15'0 0.0
2017-Sep-23 20:00N 30°13' W 093°15'0 0.0
2017-Sep-22 00:53N 30°13' W 093°15'0 0.0
2017-Sep-22 00:23N 30°13' W 093°15'0 0.0
2017-Sep-21 23:54N 30°13' W 093°15'0 0.0
2017-Sep-21 23:29N 30°13' W 093°15'0 0.0
2017-Sep-21 23:00N 30°13' W 093°15'0 0.0
2017-Sep-21 22:30N 30°13' W 093°15'0 0.0
2017-Sep-21 22:00N 30°13' W 093°15'0 0.0
2017-Sep-21 21:30N 30°13' W 093°15'0 0.0
2017-Sep-21 21:00N 30°13' W 093°15'0 0.0
2017-Sep-21 20:30N 30°13' W 093°15'0 0.0
2017-Sep-21 20:00N 30°13' W 093°15'0 0.0
2017-Sep-21 19:27N 30°13' W 093°15'0 0.0
2017-Sep-21 19:00N 30°13' W 093°15'0 0.0
2017-Sep-21 18:30N 30°13' W 093°15'0 0.0
2017-Sep-21 18:00N 30°13' W 093°15'0 0.0
2017-Sep-21 17:31N 30°13' W 093°15'4 7.3
2017-Sep-21 17:01N 30°11' W 093°19'3 5.5
2017-Sep-21 16:24N 30°13' W 093°17'0 0.0
2017-Sep-21 16:00N 30°13' W 093°17'1 1.7
2017-Sep-21 15:31N 30°13' W 093°17'2 4.9
2017-Sep-21 15:00N 30°11' W 093°19'1 2.1
2017-Sep-21 14:30N 30°10' W 093°19'2 4.1
2017-Sep-21 14:01N 30°12' W 093°18'2 4.6
2017-Sep-21 13:30N 30°13' W 093°15'0 0.0
2017-Sep-21 12:59N 30°13' W 093°15'0 0.0
2017-Sep-21 12:30N 30°13' W 093°15'0 0.0
2017-Sep-21 12:00N 30°13' W 093°15'0 0.0
2017-Sep-21 11:30N 30°13' W 093°15'0 0.0
2017-Sep-21 11:00N 30°13' W 093°15'0 0.0
2017-Sep-21 10:30N 30°13' W 093°15'0 0.0
2017-Sep-21 10:00N 30°13' W 093°15'0 0.0
2017-Sep-21 09:30N 30°13' W 093°15'0 0.0
2017-Sep-21 09:01N 30°13' W 093°15'0 0.0
2017-Sep-21 08:30N 30°13' W 093°15'0 0.0
2017-Sep-21 08:00N 30°13' W 093°15'0 0.0
2017-Sep-21 07:31N 30°13' W 093°15'0 0.0
2017-Sep-21 07:00N 30°13' W 093°15'0 0.0
2017-Sep-21 06:30N 30°13' W 093°15'0 0.0
2017-Sep-21 06:00N 30°13' W 093°15'0 0.0
2017-Sep-21 05:30N 30°13' W 093°15'0 0.0
2017-Sep-21 05:00N 30°13' W 093°15'0 0.0
2017-Sep-21 04:30N 30°13' W 093°15'0 0.0
2017-Sep-21 04:00N 30°13' W 093°15'0 0.0
2017-Sep-21 03:30N 30°13' W 093°15'0 0.0
2017-Sep-21 03:00N 30°13' W 093°15'0 0.0
2017-Sep-21 02:29N 30°13' W 093°15'0 0.0
2017-Sep-21 02:00N 30°13' W 093°15'0 0.0
2017-Sep-21 01:30N 30°13' W 093°15'0 0.0
2017-Sep-21 00:59N 30°13' W 093°15'0 0.0
2017-Sep-21 00:28N 30°13' W 093°15'0 0.0
2017-Sep-21 00:00N 30°13' W 093°15'0 0.0
2017-Sep-20 23:30N 30°13' W 093°15'0 0.0
2017-Sep-20 22:59N 30°13' W 093°15'0 0.0
2017-Sep-20 22:30N 30°13' W 093°15'0 0.0
2017-Sep-20 22:00N 30°13' W 093°15'0 0.0
2017-Sep-20 21:28N 30°13' W 093°15'0 0.0
2017-Sep-20 21:00N 30°13' W 093°15'0 0.0
2017-Sep-20 20:30N 30°13' W 093°15'0 0.0
2017-Sep-20 20:00N 30°13' W 093°15'0 0.0
2017-Sep-20 19:30N 30°13' W 093°15'0 0.0
2017-Sep-20 19:00N 30°13' W 093°15'0 0.0
2017-Sep-20 18:30N 30°13' W 093°15'0 0.0
2017-Sep-20 18:00N 30°13' W 093°15'0 0.0
2017-Sep-20 17:30N 30°13' W 093°15'0 0.0
2017-Sep-20 17:00N 30°13' W 093°15'0 0.0
2017-Sep-20 16:30N 30°13' W 093°15'0 0.0
2017-Sep-20 16:00N 30°13' W 093°15'0 0.0
2017-Sep-20 15:28N 30°13' W 093°15'0 0.0
2017-Sep-20 14:56N 30°13' W 093°15'0 0.0
2017-Sep-20 13:38N 30°13' W 093°15'0 0.0
2017-Sep-20 13:28N 30°13' W 093°15'0 0.0
2017-Sep-20 12:52N 30°13' W 093°15'0 0.0
2017-Sep-20 12:30N 30°13' W 093°15'0 0.0
2017-Sep-20 11:59N 30°13' W 093°15'0 0.0
2017-Sep-20 11:30N 30°13' W 093°15'0 0.0
2017-Sep-20 11:00N 30°13' W 093°15'0 0.0
2017-Sep-20 10:30N 30°13' W 093°15'0 0.0
2017-Sep-20 10:00N 30°13' W 093°15'0 0.0
2017-Sep-20 09:30N 30°13' W 093°15'0 0.0
2017-Sep-20 08:59N 30°13' W 093°15'0 0.0
2017-Sep-20 08:30N 30°13' W 093°15'0 0.0
2017-Sep-20 08:00N 30°13' W 093°15'0 0.0
2017-Sep-20 07:30N 30°13' W 093°15'0 0.0
2017-Sep-20 07:00N 30°13' W 093°15'0 0.0
2017-Sep-20 06:30N 30°13' W 093°15'0 0.0
2017-Sep-20 06:00N 30°13' W 093°15'3 5.7
2017-Sep-20 05:31N 30°11' W 093°18'2 3.8
2017-Sep-20 05:01N 30°10' W 093°19'2 3.1
2017-Sep-20 04:31N 30°11' W 093°19'0 0.9
2017-Sep-20 04:01N 30°11' W 093°19'3 5.1
2017-Sep-20 03:31N 30°12' W 093°17'1 2.3
2017-Sep-20 03:00N 30°13' W 093°15'0 0.0
2017-Sep-20 02:30N 30°13' W 093°15'0 0.0
2017-Sep-20 02:00N 30°13' W 093°15'0 0.0
2017-Sep-20 01:29N 30°13' W 093°15'0 0.0
2017-Sep-20 01:00N 30°13' W 093°15'0 0.0
2017-Sep-20 00:30N 30°13' W 093°15'0 0.0
2017-Sep-20 00:00N 30°13' W 093°15'0 0.0
2017-Sep-19 23:27N 30°13' W 093°15'0 0.0
2017-Sep-19 22:57N 30°13' W 093°15'0 0.0
2017-Sep-19 22:27N 30°13' W 093°15'0 0.0
2017-Sep-19 20:08N 30°13' W 093°15'0 0.0
2017-Sep-19 18:52N 30°13' W 093°15'0 0.4
2017-Sep-19 18:30N 30°13' W 093°15'0 0.0
2017-Sep-19 18:01N 30°13' W 093°15'0 0.0
2017-Sep-19 17:30N 30°13' W 093°15'0 0.0
2017-Sep-19 17:01N 30°13' W 093°15'0 0.0
2017-Sep-19 16:31N 30°13' W 093°15'0 0.0
2017-Sep-19 16:01N 30°13' W 093°15'0 0.0
2017-Sep-19 15:31N 30°13' W 093°15'0 0.0
2017-Sep-19 15:01N 30°13' W 093°15'0 0.0
2017-Sep-19 14:31N 30°13' W 093°15'0 0.0
2017-Sep-19 14:01N 30°13' W 093°15'0 0.0
2017-Sep-19 13:30N 30°13' W 093°15'0 0.0
2017-Sep-19 13:01N 30°13' W 093°15'0 0.0
2017-Sep-19 12:30N 30°13' W 093°15'0 0.0
2017-Sep-19 12:01N 30°13' W 093°15'0 0.0
2017-Sep-19 11:30N 30°13' W 093°15'0 0.0
2017-Sep-19 11:00N 30°13' W 093°15'0 0.0
2017-Sep-19 10:31N 30°13' W 093°15'0 0.0
2017-Sep-19 10:01N 30°13' W 093°15'0 0.0
2017-Sep-19 09:31N 30°13' W 093°15'3 5.5
2017-Sep-19 09:01N 30°11' W 093°18'1 2.1
2017-Sep-19 08:30N 30°11' W 093°19'2 4.3
2017-Sep-19 08:01N 30°12' W 093°17'1 2.9
2017-Sep-19 07:31N 30°13' W 093°16'1 1.4
2017-Sep-19 07:01N 30°13' W 093°15'0 0.0
2017-Sep-19 06:31N 30°13' W 093°15'0 0.0
2017-Sep-19 06:00N 30°13' W 093°15'0 0.0
2017-Sep-19 05:30N 30°13' W 093°15'0 0.0
2017-Sep-19 05:00N 30°13' W 093°15'0 0.0
2017-Sep-19 04:30N 30°13' W 093°15'0 0.0
2017-Sep-19 04:00N 30°13' W 093°15'0 0.0
2017-Sep-19 03:31N 30°13' W 093°15'0 0.0
2017-Sep-19 03:01N 30°13' W 093°15'0 0.0
2017-Sep-19 02:31N 30°13' W 093°15'0 0.0
2017-Sep-19 02:01N 30°13' W 093°15'2 4.3
2017-Sep-19 01:31N 30°12' W 093°18'3 6.1
2017-Sep-19 01:00N 30°09' W 093°20'5 2.2
2017-Sep-18 22:50N 30°05' W 093°20'2 7.2
2017-Sep-18 22:31N 30°07' W 093°20'4 7.0
2017-Sep-18 22:00N 30°10' W 093°19'4 7.3
2017-Sep-18 21:31N 30°12' W 093°16'0 0.9
2017-Sep-18 21:01N 30°13' W 093°15'0 0.0
2017-Sep-18 20:31N 30°13' W 093°15'0 0.0
2017-Sep-18 20:00N 30°13' W 093°15'0 0.0
2017-Sep-18 19:30N 30°13' W 093°15'0 0.0
2017-Sep-18 19:00N 30°13' W 093°15'0 0.0
2017-Sep-18 18:31N 30°13' W 093°15'0 0.0
2017-Sep-18 18:00N 30°13' W 093°15'0 0.0
2017-Sep-18 17:31N 30°13' W 093°15'0 0.0
2017-Sep-18 17:00N 30°13' W 093°15'0 0.0
2017-Sep-18 16:30N 30°13' W 093°15'0 0.0
2017-Sep-18 16:00N 30°13' W 093°15'0 0.0
2017-Sep-18 15:30N 30°13' W 093°15'0 0.0
2017-Sep-18 15:01N 30°13' W 093°15'0 0.0
2017-Sep-18 14:31N 30°13' W 093°15'0 0.0
2017-Sep-18 14:01N 30°13' W 093°15'0 0.0
2017-Sep-18 13:30N 30°13' W 093°15'0 0.0
2017-Sep-18 13:00N 30°13' W 093°15'0 0.0
2017-Sep-18 12:31N 30°13' W 093°15'0 0.0
2017-Sep-18 12:01N 30°13' W 093°15'0 0.0
2017-Sep-18 11:30N 30°13' W 093°15'0 0.0
2017-Sep-18 11:01N 30°13' W 093°15'0 0.0
2017-Sep-18 10:30N 30°13' W 093°15'0 0.0
2017-Sep-18 10:00N 30°13' W 093°15'0 0.0
2017-Sep-18 09:30N 30°13' W 093°15'0 0.0
2017-Sep-18 09:00N 30°13' W 093°15'0 0.0
2017-Sep-18 08:30N 30°13' W 093°15'0 0.0
2017-Sep-18 08:01N 30°13' W 093°15'0 0.0
2017-Sep-18 07:31N 30°13' W 093°15'0 0.0
2017-Sep-18 07:00N 30°13' W 093°15'0 0.0
2017-Sep-18 06:30N 30°13' W 093°15'0 0.0
2017-Sep-18 06:00N 30°13' W 093°15'0 0.0
2017-Sep-18 05:31N 30°13' W 093°15'0 0.0
2017-Sep-18 05:01N 30°13' W 093°15'0 0.0
2017-Sep-18 04:30N 30°13' W 093°15'0 0.0
2017-Sep-18 04:01N 30°13' W 093°15'0 0.0
2017-Sep-18 03:30N 30°13' W 093°15'0 0.0
2017-Sep-18 03:01N 30°13' W 093°15'0 0.0
2017-Sep-18 02:31N 30°13' W 093°15'0 0.0
2017-Sep-18 02:00N 30°13' W 093°15'0 0.0
2017-Sep-18 01:30N 30°13' W 093°15'0 0.0
2017-Sep-18 01:00N 30°13' W 093°15'0 0.0
2017-Sep-18 00:30N 30°13' W 093°15'0 0.0
2017-Sep-18 00:01N 30°13' W 093°15'0 0.0
2017-Sep-17 23:31N 30°13' W 093°15'0 0.0
2017-Sep-17 23:01N 30°13' W 093°15'0 0.0
2017-Sep-17 22:31N 30°13' W 093°15'0 0.0
2017-Sep-17 22:00N 30°13' W 093°15'0 0.0
2017-Sep-17 21:31N 30°13' W 093°15'0 0.0
2017-Sep-17 21:01N 30°13' W 093°15'0 0.0
2017-Sep-17 20:31N 30°13' W 093°15'0 0.0
2017-Sep-17 20:00N 30°13' W 093°15'0 0.0
2017-Sep-17 19:30N 30°13' W 093°15'0 0.0
2017-Sep-17 19:01N 30°13' W 093°15'0 0.0
2017-Sep-17 18:31N 30°13' W 093°15'0 0.0
2017-Sep-17 18:00N 30°13' W 093°15'0 0.0
2017-Sep-17 17:31N 30°13' W 093°15'0 0.0
2017-Sep-17 17:01N 30°13' W 093°15'0 0.0
2017-Sep-17 16:31N 30°13' W 093°15'0 0.0
2017-Sep-17 16:01N 30°13' W 093°15'0 0.0
2017-Sep-17 15:31N 30°13' W 093°15'0 0.0
2017-Sep-17 15:00N 30°13' W 093°15'0 0.0
2017-Sep-17 14:31N 30°13' W 093°15'0 0.0
2017-Sep-17 14:00N 30°13' W 093°15'0 0.0
2017-Sep-17 13:30N 30°13' W 093°15'0 0.0
2017-Sep-17 13:01N 30°13' W 093°15'0 0.0
2017-Sep-17 12:30N 30°13' W 093°15'0 0.0
2017-Sep-17 12:01N 30°13' W 093°15'1 2.4
2017-Sep-17 11:30N 30°12' W 093°17'1 2.2
2017-Sep-17 11:01N 30°13' W 093°17'0 0.3
2017-Sep-17 10:30N 30°13' W 093°17'2 3.8
2017-Sep-17 10:00N 30°12' W 093°18'0 0.3
2017-Sep-17 09:30N 30°11' W 093°18'3 5.2
2017-Sep-17 09:01N 30°13' W 093°15'0 0.0
2017-Sep-17 08:31N 30°13' W 093°15'0 0.0
2017-Sep-17 08:01N 30°13' W 093°15'0 0.0
2017-Sep-17 07:31N 30°13' W 093°15'0 0.0
2017-Sep-17 07:00N 30°13' W 093°15'0 0.0
2017-Sep-17 06:30N 30°13' W 093°15'0 0.0
2017-Sep-17 06:00N 30°13' W 093°15'0 0.0
2017-Sep-17 05:31N 30°13' W 093°15'0 0.0
2017-Sep-17 04:55N 30°13' W 093°15'0 0.0
2017-Sep-17 04:30N 30°13' W 093°15'0 0.0
2017-Sep-17 04:00N 30°13' W 093°15'0 0.0
2017-Sep-17 03:30N 30°13' W 093°15'0 0.0
2017-Sep-17 03:00N 30°13' W 093°15'0 0.0
2017-Sep-17 02:30N 30°13' W 093°15'0 0.0
2017-Sep-17 02:00N 30°13' W 093°15'0 0.0
2017-Sep-17 01:30N 30°13' W 093°15'0 0.0
2017-Sep-17 01:00N 30°13' W 093°15'0 0.0
2017-Sep-17 00:30N 30°13' W 093°15'0 0.0
2017-Sep-17 00:01N 30°13' W 093°15'0 0.7
2017-Sep-16 23:30N 30°13' W 093°16'3 6.9
2017-Sep-16 23:01N 30°11' W 093°19'1 2.9
2017-Sep-16 22:30N 30°09' W 093°20'2 4.7
2017-Sep-16 22:01N 30°11' W 093°18'2 4.0
2017-Sep-16 21:31N 30°12' W 093°16'1 1.7
2017-Sep-16 21:01N 30°13' W 093°15'0 0.6
2017-Sep-16 20:30N 30°13' W 093°15'0 0.0
2017-Sep-16 19:59N 30°13' W 093°15'0 0.0
2017-Sep-16 19:21N 30°13' W 093°15'0 0.0
2017-Sep-16 19:00N 30°13' W 093°15'0 0.0
2017-Sep-16 18:30N 30°13' W 093°15'0 0.0
2017-Sep-16 18:01N 30°13' W 093°15'0 0.0
2017-Sep-16 17:31N 30°13' W 093°15'0 0.0
2017-Sep-16 17:00N 30°13' W 093°15'0 0.0
2017-Sep-16 16:31N 30°13' W 093°15'0 0.0
2017-Sep-16 16:01N 30°13' W 093°15'0 0.0
2017-Sep-16 15:31N 30°13' W 093°15'0 0.0
2017-Sep-16 15:00N 30°13' W 093°15'0 0.0
2017-Sep-16 14:31N 30°13' W 093°15'0 0.0
2017-Sep-16 14:01N 30°13' W 093°15'0 0.0
2017-Sep-16 13:31N 30°13' W 093°15'0 0.0
2017-Sep-16 13:00N 30°13' W 093°15'0 0.0
2017-Sep-16 12:30N 30°13' W 093°15'0 0.0
2017-Sep-16 12:00N 30°13' W 093°15'0 0.0
2017-Sep-16 11:30N 30°13' W 093°15'0 0.4
2017-Sep-16 11:00N 30°13' W 093°15'0 0.0
2017-Sep-16 10:30N 30°13' W 093°15'0 0.0
2017-Sep-16 10:01N 30°13' W 093°15'0 0.0
2017-Sep-16 09:31N 30°13' W 093°15'0 0.3
2017-Sep-16 09:00N 30°13' W 093°15'0 0.6
2017-Sep-16 08:30N 30°13' W 093°15'1 1.7
2017-Sep-16 08:00N 30°12' W 093°16'2 4.8
2017-Sep-16 07:30N 30°11' W 093°19'2 3.9
2017-Sep-16 07:01N 30°09' W 093°20'1 1.8
2017-Sep-16 06:30N 30°08' W 093°20'1 2.9
2017-Sep-16 06:00N 30°10' W 093°19'4 7.8
2017-Sep-16 05:30N 30°12' W 093°16'1 1.3
2017-Sep-16 05:00N 30°13' W 093°15'0 0.0
2017-Sep-16 04:30N 30°13' W 093°15'0 0.0
2017-Sep-16 04:01N 30°13' W 093°15'0 0.0
2017-Sep-16 03:31N 30°13' W 093°15'0 0.0
2017-Sep-16 03:01N 30°13' W 093°15'0 0.0
2017-Sep-16 02:30N 30°13' W 093°15'0 0.0
2017-Sep-16 02:00N 30°13' W 093°15'0 0.0
2017-Sep-16 01:28N 30°13' W 093°15'0 0.0
2017-Sep-16 01:01N 30°13' W 093°15'0 0.0
2017-Sep-16 00:30N 30°13' W 093°15'0 0.0
2017-Sep-16 00:00N 30°13' W 093°15'0 0.0
2017-Sep-15 23:30N 30°13' W 093°15'0 0.0
2017-Sep-15 23:00N 30°13' W 093°15'0 0.0
2017-Sep-15 22:30N 30°13' W 093°15'0 0.0
2017-Sep-15 22:00N 30°13' W 093°15'0 0.0
2017-Sep-15 21:30N 30°13' W 093°15'0 0.0
2017-Sep-15 21:01N 30°13' W 093°15'0 0.0
2017-Sep-15 20:31N 30°13' W 093°15'0 0.0
2017-Sep-15 20:00N 30°13' W 093°15'4 7.1
2017-Sep-15 19:30N 30°11' W 093°19'4 8.3
2017-Sep-15 19:00N 30°07' W 093°20'1 2.2
2017-Sep-15 18:31N 30°08' W 093°20'3 5.2
2017-Sep-15 18:00N 30°10' W 093°19'2 3.7
2017-Sep-15 17:30N 30°12' W 093°18'2 4.3
2017-Sep-15 17:01N 30°13' W 093°16'1 1.7
2017-Sep-15 16:31N 30°14' W 093°15'0 0.3
2017-Sep-15 16:00N 30°14' W 093°15'0 0.0
2017-Sep-15 15:30N 30°14' W 093°15'0 0.0
2017-Sep-15 15:01N 30°14' W 093°15'0 0.0
2017-Sep-15 14:30N 30°14' W 093°15'0 0.0
2017-Sep-15 14:00N 30°14' W 093°15'1 1.5
2017-Sep-15 13:30N 30°13' W 093°16'1 1.0
2017-Sep-15 13:00N 30°13' W 093°15'0 0.0
2017-Sep-15 12:30N 30°13' W 093°15'0 0.0
2017-Sep-15 12:01N 30°13' W 093°15'0 0.0
2017-Sep-15 11:30N 30°13' W 093°15'0 0.0
2017-Sep-15 11:01N 30°13' W 093°15'0 0.0
2017-Sep-15 10:31N 30°13' W 093°15'0 0.0
2017-Sep-15 10:00N 30°13' W 093°15'0 0.0
2017-Sep-15 09:31N 30°13' W 093°15'0 0.0
2017-Sep-15 09:00N 30°13' W 093°15'0 0.0
2017-Sep-15 08:30N 30°13' W 093°15'0 0.0
2017-Sep-15 08:01N 30°13' W 093°15'0 0.0
2017-Sep-15 07:30N 30°13' W 093°15'0 0.0
2017-Sep-15 07:01N 30°13' W 093°15'0 0.0
2017-Sep-15 06:30N 30°13' W 093°15'0 0.0
2017-Sep-15 06:00N 30°13' W 093°15'0 0.0
2017-Sep-15 05:31N 30°13' W 093°15'0 0.0
2017-Sep-15 05:01N 30°13' W 093°15'0 0.0
2017-Sep-15 04:30N 30°13' W 093°15'0 0.0
2017-Sep-15 04:01N 30°13' W 093°15'0 0.0
2017-Sep-15 03:30N 30°13' W 093°15'0 0.0
2017-Sep-15 03:01N 30°13' W 093°15'0 0.0
2017-Sep-15 02:31N 30°13' W 093°15'0 0.0
2017-Sep-15 02:01N 30°13' W 093°15'0 0.0
2017-Sep-15 01:30N 30°13' W 093°15'0 0.0
2017-Sep-15 01:00N 30°13' W 093°15'0 0.0
2017-Sep-15 00:30N 30°13' W 093°15'0 0.0
2017-Sep-15 00:00N 30°13' W 093°15'0 0.0
2017-Sep-14 23:31N 30°13' W 093°15'0 0.0
2017-Sep-14 23:00N 30°13' W 093°15'0 0.0
2017-Sep-14 22:30N 30°13' W 093°15'0 0.0
2017-Sep-14 22:00N 30°13' W 093°15'0 0.0
2017-Sep-14 21:30N 30°13' W 093°15'0 0.0
2017-Sep-14 21:01N 30°13' W 093°15'0 0.0
2017-Sep-14 20:31N 30°13' W 093°15'0 0.0
2017-Sep-14 20:00N 30°13' W 093°15'0 0.0
2017-Sep-14 19:31N 30°13' W 093°15'0 0.0
2017-Sep-14 19:00N 30°13' W 093°15'0 0.0
2017-Sep-14 18:30N 30°13' W 093°15'0 0.0
2017-Sep-14 18:00N 30°13' W 093°15'0 0.0
2017-Sep-14 17:31N 30°13' W 093°15'0 0.0
2017-Sep-14 17:01N 30°13' W 093°15'0 0.0
2017-Sep-14 16:30N 30°13' W 093°15'0 0.0
2017-Sep-14 16:01N 30°13' W 093°15'0 0.0
2017-Sep-14 15:30N 30°13' W 093°15'0 0.0
2017-Sep-14 15:00N 30°13' W 093°15'0 0.0
2017-Sep-14 14:30N 30°13' W 093°15'0 0.0
2017-Sep-14 14:00N 30°13' W 093°15'0 0.0
2017-Sep-14 13:30N 30°13' W 093°15'0 0.0
2017-Sep-14 12:56N 30°13' W 093°15'0 0.0
2017-Sep-14 12:30N 30°13' W 093°15'0 0.0
2017-Sep-14 12:01N 30°13' W 093°15'0 0.0
2017-Sep-14 11:30N 30°13' W 093°15'0 0.0
2017-Sep-14 11:00N 30°13' W 093°15'0 0.0
2017-Sep-14 10:30N 30°13' W 093°15'0 0.0
2017-Sep-14 10:00N 30°13' W 093°15'0 0.0
2017-Sep-14 09:29N 30°13' W 093°15'1 1.1
2017-Sep-14 09:00N 30°13' W 093°16'1 2.1
2017-Sep-14 08:30N 30°14' W 093°15'0 0.0
2017-Sep-14 08:00N 30°14' W 093°15'0 0.1
2017-Sep-14 07:30N 30°14' W 093°15'1 1.4
2017-Sep-14 07:00N 30°13' W 093°15'1 2.7
2017-Sep-14 06:30N 30°12' W 093°16'3 5.5
2017-Sep-14 06:01N 30°11' W 093°19'2 3.4
2017-Sep-14 05:30N 30°09' W 093°20'3 5.4
2017-Sep-14 05:00N 30°07' W 093°20'2 4.7
2017-Sep-14 04:30N 30°04' W 093°20'4 8.8
2017-Sep-14 04:00N 30°09' W 093°20'4 8.5
2017-Sep-14 03:30N 30°12' W 093°17'2 3.3
2017-Sep-14 03:01N 30°13' W 093°15'0 0.0
2017-Sep-14 02:30N 30°13' W 093°15'0 0.0
2017-Sep-14 02:01N 30°13' W 093°15'0 0.0
2017-Sep-14 01:30N 30°13' W 093°15'0 0.0
2017-Sep-14 01:01N 30°13' W 093°15'0 0.0
2017-Sep-14 00:30N 30°13' W 093°15'0 0.0
2017-Sep-14 00:00N 30°13' W 093°15'0 0.0
2017-Sep-13 23:31N 30°13' W 093°15'  
Track history (hours):
 
Tides and Currents Weather Stations Pressure Air Temp Water Temp Dewpoint Dewpoint Depression Visibility Wind Speed Wind Dir Waves Ship Positions

George

Owner: Harbor Docking & Towing Co LLC, Houston, TX. More information available from US FCC via Universal Licensing System and Coast Guard Vessel Documentation Center.

Last reported at 2017-Sep-23 23:29 UTC. Time now 2017-Sep-23 23:41 UTC.
Position N 30°13' W 093°15'.

Length 33 m.

Type: Tug. MMSI: 367401290.

Date/timePositionNaut miles runAvg speedWind from/ knotsBaromVisibWave heightAir tempDewpointWater temp
2017-Sep-23 23:29N 30°13' W 093°15'0 0.0
2017-Sep-23 23:00N 30°13' W 093°15'0 0.0
2017-Sep-23 22:30N 30°13' W 093°15'0 0.0
2017-Sep-23 22:00N 30°13' W 093°15'0 0.0
2017-Sep-23 21:30N 30°13' W 093°15'0 0.0
2017-Sep-23 21:00N 30°13' W 093°15'0 0.0
2017-Sep-23 20:30N 30°13' W 093°15'0 0.0
2017-Sep-23 20:00N 30°13' W 093°15'0 0.0
2017-Sep-22 00:53N 30°13' W 093°15'0 0.0
2017-Sep-22 00:23N 30°13' W 093°15'0 0.0
2017-Sep-21 23:54N 30°13' W 093°15'0 0.0
2017-Sep-21 23:29N 30°13' W 093°15'0 0.0
2017-Sep-21 23:00N 30°13' W 093°15'0 0.0
2017-Sep-21 22:30N 30°13' W 093°15'0 0.0
2017-Sep-21 22:00N 30°13' W 093°15'0 0.0
2017-Sep-21 21:30N 30°13' W 093°15'0 0.0
2017-Sep-21 21:00N 30°13' W 093°15'0 0.0
2017-Sep-21 20:30N 30°13' W 093°15'0 0.0
2017-Sep-21 20:00N 30°13' W 093°15'0 0.0
2017-Sep-21 19:27N 30°13' W 093°15'0 0.0
2017-Sep-21 19:00N 30°13' W 093°15'0 0.0
2017-Sep-21 18:30N 30°13' W 093°15'0 0.0
2017-Sep-21 18:00N 30°13' W 093°15'0 0.0
2017-Sep-21 17:31N 30°13' W 093°15'4 7.3
2017-Sep-21 17:01N 30°11' W 093°19'3 5.5
2017-Sep-21 16:24N 30°13' W 093°17'0 0.0
2017-Sep-21 16:00N 30°13' W 093°17'1 1.7
2017-Sep-21 15:31N 30°13' W 093°17'2 4.9
2017-Sep-21 15:00N 30°11' W 093°19'1 2.1
2017-Sep-21 14:30N 30°10' W 093°19'2 4.1
2017-Sep-21 14:01N 30°12' W 093°18'2 4.6
2017-Sep-21 13:30N 30°13' W 093°15'0 0.0
2017-Sep-21 12:59N 30°13' W 093°15'0 0.0
2017-Sep-21 12:30N 30°13' W 093°15'0 0.0
2017-Sep-21 12:00N 30°13' W 093°15'0 0.0
2017-Sep-21 11:30N 30°13' W 093°15'0 0.0
2017-Sep-21 11:00N 30°13' W 093°15'0 0.0
2017-Sep-21 10:30N 30°13' W 093°15'0 0.0
2017-Sep-21 10:00N 30°13' W 093°15'0 0.0
2017-Sep-21 09:30N 30°13' W 093°15'0 0.0
2017-Sep-21 09:01N 30°13' W 093°15'0 0.0
2017-Sep-21 08:30N 30°13' W 093°15'0 0.0
2017-Sep-21 08:00N 30°13' W 093°15'0 0.0
2017-Sep-21 07:31N 30°13' W 093°15'0 0.0
2017-Sep-21 07:00N 30°13' W 093°15'0 0.0
2017-Sep-21 06:30N 30°13' W 093°15'0 0.0
2017-Sep-21 06:00N 30°13' W 093°15'0 0.0
2017-Sep-21 05:30N 30°13' W 093°15'0 0.0
2017-Sep-21 05:00N 30°13' W 093°15'0 0.0
2017-Sep-21 04:30N 30°13' W 093°15'0 0.0
2017-Sep-21 04:00N 30°13' W 093°15'0 0.0
2017-Sep-21 03:30N 30°13' W 093°15'0 0.0
2017-Sep-21 03:00N 30°13' W 093°15'0 0.0
2017-Sep-21 02:29N 30°13' W 093°15'0 0.0
2017-Sep-21 02:00N 30°13' W 093°15'0 0.0
2017-Sep-21 01:30N 30°13' W 093°15'0 0.0
2017-Sep-21 00:59N 30°13' W 093°15'0 0.0
2017-Sep-21 00:28N 30°13' W 093°15'0 0.0
2017-Sep-21 00:00N 30°13' W 093°15'0 0.0
2017-Sep-20 23:30N 30°13' W 093°15'0 0.0
2017-Sep-20 22:59N 30°13' W 093°15'0 0.0
2017-Sep-20 22:30N 30°13' W 093°15'0 0.0
2017-Sep-20 22:00N 30°13' W 093°15'0 0.0
2017-Sep-20 21:28N 30°13' W 093°15'0 0.0
2017-Sep-20 21:00N 30°13' W 093°15'0 0.0
2017-Sep-20 20:30N 30°13' W 093°15'0 0.0
2017-Sep-20 20:00N 30°13' W 093°15'0 0.0
2017-Sep-20 19:30N 30°13' W 093°15'0 0.0
2017-Sep-20 19:00N 30°13' W 093°15'0 0.0
2017-Sep-20 18:30N 30°13' W 093°15'0 0.0
2017-Sep-20 18:00N 30°13' W 093°15'0 0.0
2017-Sep-20 17:30N 30°13' W 093°15'0 0.0
2017-Sep-20 17:00N 30°13' W 093°15'0 0.0
2017-Sep-20 16:30N 30°13' W 093°15'0 0.0
2017-Sep-20 16:00N 30°13' W 093°15'0 0.0
2017-Sep-20 15:28N 30°13' W 093°15'0 0.0
2017-Sep-20 14:56N 30°13' W 093°15'0 0.0
2017-Sep-20 13:38N 30°13' W 093°15'0 0.0
2017-Sep-20 13:28N 30°13' W 093°15'0 0.0
2017-Sep-20 12:52N 30°13' W 093°15'0 0.0
2017-Sep-20 12:30N 30°13' W 093°15'0 0.0
2017-Sep-20 11:59N 30°13' W 093°15'0 0.0
2017-Sep-20 11:30N 30°13' W 093°15'0 0.0
2017-Sep-20 11:00N 30°13' W 093°15'0 0.0
2017-Sep-20 10:30N 30°13' W 093°15'0 0.0
2017-Sep-20 10:00N 30°13' W 093°15'0 0.0
2017-Sep-20 09:30N 30°13' W 093°15'0 0.0
2017-Sep-20 08:59N 30°13' W 093°15'0 0.0
2017-Sep-20 08:30N 30°13' W 093°15'0 0.0
2017-Sep-20 08:00N 30°13' W 093°15'0 0.0
2017-Sep-20 07:30N 30°13' W 093°15'0 0.0
2017-Sep-20 07:00N 30°13' W 093°15'0 0.0
2017-Sep-20 06:30N 30°13' W 093°15'0 0.0
2017-Sep-20 06:00N 30°13' W 093°15'3 5.7
2017-Sep-20 05:31N 30°11' W 093°18'2 3.8
2017-Sep-20 05:01N 30°10' W 093°19'2 3.1
2017-Sep-20 04:31N 30°11' W 093°19'0 0.9
2017-Sep-20 04:01N 30°11' W 093°19'3 5.1
2017-Sep-20 03:31N 30°12' W 093°17'1 2.3
2017-Sep-20 03:00N 30°13' W 093°15'0 0.0
2017-Sep-20 02:30N 30°13' W 093°15'0 0.0
2017-Sep-20 02:00N 30°13' W 093°15'0 0.0
2017-Sep-20 01:29N 30°13' W 093°15'0 0.0
2017-Sep-20 01:00N 30°13' W 093°15'0 0.0
2017-Sep-20 00:30N 30°13' W 093°15'0 0.0
2017-Sep-20 00:00N 30°13' W 093°15'0 0.0
2017-Sep-19 23:27N 30°13' W 093°15'0 0.0
2017-Sep-19 22:57N 30°13' W 093°15'0 0.0
2017-Sep-19 22:27N 30°13' W 093°15'0 0.0
2017-Sep-19 20:08N 30°13' W 093°15'0 0.0
2017-Sep-19 18:52N 30°13' W 093°15'0 0.4
2017-Sep-19 18:30N 30°13' W 093°15'0 0.0
2017-Sep-19 18:01N 30°13' W 093°15'0 0.0
2017-Sep-19 17:30N 30°13' W 093°15'0 0.0
2017-Sep-19 17:01N 30°13' W 093°15'0 0.0
2017-Sep-19 16:31N 30°13' W 093°15'0 0.0
2017-Sep-19 16:01N 30°13' W 093°15'0 0.0
2017-Sep-19 15:31N 30°13' W 093°15'0 0.0
2017-Sep-19 15:01N 30°13' W 093°15'0 0.0
2017-Sep-19 14:31N 30°13' W 093°15'0 0.0
2017-Sep-19 14:01N 30°13' W 093°15'0 0.0
2017-Sep-19 13:30N 30°13' W 093°15'0 0.0
2017-Sep-19 13:01N 30°13' W 093°15'0 0.0
2017-Sep-19 12:30N 30°13' W 093°15'0 0.0
2017-Sep-19 12:01N 30°13' W 093°15'0 0.0
2017-Sep-19 11:30N 30°13' W 093°15'0 0.0
2017-Sep-19 11:00N 30°13' W 093°15'0 0.0
2017-Sep-19 10:31N 30°13' W 093°15'0 0.0
2017-Sep-19 10:01N 30°13' W 093°15'0 0.0
2017-Sep-19 09:31N 30°13' W 093°15'3 5.5
2017-Sep-19 09:01N 30°11' W 093°18'1 2.1
2017-Sep-19 08:30N 30°11' W 093°19'2 4.3
2017-Sep-19 08:01N 30°12' W 093°17'1 2.9
2017-Sep-19 07:31N 30°13' W 093°16'1 1.4
2017-Sep-19 07:01N 30°13' W 093°15'0 0.0
2017-Sep-19 06:31N 30°13' W 093°15'0 0.0
2017-Sep-19 06:00N 30°13' W 093°15'0 0.0
2017-Sep-19 05:30N 30°13' W 093°15'0 0.0
2017-Sep-19 05:00N 30°13' W 093°15'0 0.0
2017-Sep-19 04:30N 30°13' W 093°15'0 0.0
2017-Sep-19 04:00N 30°13' W 093°15'0 0.0
2017-Sep-19 03:31N 30°13' W 093°15'0 0.0
2017-Sep-19 03:01N 30°13' W 093°15'0 0.0
2017-Sep-19 02:31N 30°13' W 093°15'0 0.0
2017-Sep-19 02:01N 30°13' W 093°15'2 4.3
2017-Sep-19 01:31N 30°12' W 093°18'3 6.1
2017-Sep-19 01:00N 30°09' W 093°20'5 2.2
2017-Sep-18 22:50N 30°05' W 093°20'2 7.2
2017-Sep-18 22:31N 30°07' W 093°20'4 7.0
2017-Sep-18 22:00N 30°10' W 093°19'4 7.3
2017-Sep-18 21:31N 30°12' W 093°16'0 0.9
2017-Sep-18 21:01N 30°13' W 093°15'0 0.0
2017-Sep-18 20:31N 30°13' W 093°15'0 0.0
2017-Sep-18 20:00N 30°13' W 093°15'0 0.0
2017-Sep-18 19:30N 30°13' W 093°15'0 0.0
2017-Sep-18 19:00N 30°13' W 093°15'0 0.0
2017-Sep-18 18:31N 30°13' W 093°15'0 0.0
2017-Sep-18 18:00N 30°13' W 093°15'0 0.0
2017-Sep-18 17:31N 30°13' W 093°15'0 0.0
2017-Sep-18 17:00N 30°13' W 093°15'0 0.0
2017-Sep-18 16:30N 30°13' W 093°15'0 0.0
2017-Sep-18 16:00N 30°13' W 093°15'0 0.0
2017-Sep-18 15:30N 30°13' W 093°15'0 0.0
2017-Sep-18 15:01N 30°13' W 093°15'0 0.0
2017-Sep-18 14:31N 30°13' W 093°15'0 0.0
2017-Sep-18 14:01N 30°13' W 093°15'0 0.0
2017-Sep-18 13:30N 30°13' W 093°15'0 0.0
2017-Sep-18 13:00N 30°13' W 093°15'0 0.0
2017-Sep-18 12:31N 30°13' W 093°15'0 0.0
2017-Sep-18 12:01N 30°13' W 093°15'0 0.0
2017-Sep-18 11:30N 30°13' W 093°15'0 0.0
2017-Sep-18 11:01N 30°13' W 093°15'0 0.0
2017-Sep-18 10:30N 30°13' W 093°15'0 0.0
2017-Sep-18 10:00N 30°13' W 093°15'0 0.0
2017-Sep-18 09:30N 30°13' W 093°15'0 0.0
2017-Sep-18 09:00N 30°13' W 093°15'0 0.0
2017-Sep-18 08:30N 30°13' W 093°15'0 0.0
2017-Sep-18 08:01N 30°13' W 093°15'0 0.0
2017-Sep-18 07:31N 30°13' W 093°15'0 0.0
2017-Sep-18 07:00N 30°13' W 093°15'0 0.0
2017-Sep-18 06:30N 30°13' W 093°15'0 0.0
2017-Sep-18 06:00N 30°13' W 093°15'0 0.0
2017-Sep-18 05:31N 30°13' W 093°15'0 0.0
2017-Sep-18 05:01N 30°13' W 093°15'0 0.0
2017-Sep-18 04:30N 30°13' W 093°15'0 0.0
2017-Sep-18 04:01N 30°13' W 093°15'0 0.0
2017-Sep-18 03:30N 30°13' W 093°15'0 0.0
2017-Sep-18 03:01N 30°13' W 093°15'0 0.0
2017-Sep-18 02:31N 30°13' W 093°15'0 0.0
2017-Sep-18 02:00N 30°13' W 093°15'0 0.0
2017-Sep-18 01:30N 30°13' W 093°15'0 0.0
2017-Sep-18 01:00N 30°13' W 093°15'0 0.0
2017-Sep-18 00:30N 30°13' W 093°15'0 0.0
2017-Sep-18 00:01N 30°13' W 093°15'0 0.0
2017-Sep-17 23:31N 30°13' W 093°15'0 0.0
2017-Sep-17 23:01N 30°13' W 093°15'0 0.0
2017-Sep-17 22:31N 30°13' W 093°15'0 0.0
2017-Sep-17 22:00N 30°13' W 093°15'0 0.0
2017-Sep-17 21:31N 30°13' W 093°15'0 0.0
2017-Sep-17 21:01N 30°13' W 093°15'0 0.0
2017-Sep-17 20:31N 30°13' W 093°15'0 0.0
2017-Sep-17 20:00N 30°13' W 093°15'0 0.0
2017-Sep-17 19:30N 30°13' W 093°15'0 0.0
2017-Sep-17 19:01N 30°13' W 093°15'0 0.0
2017-Sep-17 18:31N 30°13' W 093°15'0 0.0
2017-Sep-17 18:00N 30°13' W 093°15'0 0.0
2017-Sep-17 17:31N 30°13' W 093°15'0 0.0
2017-Sep-17 17:01N 30°13' W 093°15'0 0.0
2017-Sep-17 16:31N 30°13' W 093°15'0 0.0
2017-Sep-17 16:01N 30°13' W 093°15'0 0.0
2017-Sep-17 15:31N 30°13' W 093°15'0 0.0
2017-Sep-17 15:00N 30°13' W 093°15'0 0.0
2017-Sep-17 14:31N 30°13' W 093°15'0 0.0
2017-Sep-17 14:00N 30°13' W 093°15'0 0.0
2017-Sep-17 13:30N 30°13' W 093°15'0 0.0
2017-Sep-17 13:01N 30°13' W 093°15'0 0.0
2017-Sep-17 12:30N 30°13' W 093°15'0 0.0
2017-Sep-17 12:01N 30°13' W 093°15'1 2.4
2017-Sep-17 11:30N 30°12' W 093°17'1 2.2
2017-Sep-17 11:01N 30°13' W 093°17'0 0.3
2017-Sep-17 10:30N 30°13' W 093°17'2 3.8
2017-Sep-17 10:00N 30°12' W 093°18'0 0.3
2017-Sep-17 09:30N 30°11' W 093°18'3 5.2
2017-Sep-17 09:01N 30°13' W 093°15'0 0.0
2017-Sep-17 08:31N 30°13' W 093°15'0 0.0
2017-Sep-17 08:01N 30°13' W 093°15'0 0.0
2017-Sep-17 07:31N 30°13' W 093°15'0 0.0
2017-Sep-17 07:00N 30°13' W 093°15'0 0.0
2017-Sep-17 06:30N 30°13' W 093°15'0 0.0
2017-Sep-17 06:00N 30°13' W 093°15'0 0.0
2017-Sep-17 05:31N 30°13' W 093°15'0 0.0
2017-Sep-17 04:55N 30°13' W 093°15'0 0.0
2017-Sep-17 04:30N 30°13' W 093°15'0 0.0
2017-Sep-17 04:00N 30°13' W 093°15'0 0.0
2017-Sep-17 03:30N 30°13' W 093°15'0 0.0
2017-Sep-17 03:00N 30°13' W 093°15'0 0.0
2017-Sep-17 02:30N 30°13' W 093°15'0 0.0
2017-Sep-17 02:00N 30°13' W 093°15'0 0.0
2017-Sep-17 01:30N 30°13' W 093°15'0 0.0
2017-Sep-17 01:00N 30°13' W 093°15'0 0.0
2017-Sep-17 00:30N 30°13' W 093°15'0 0.0
2017-Sep-17 00:01N 30°13' W 093°15'0 0.7
2017-Sep-16 23:30N 30°13' W 093°16'3 6.9
2017-Sep-16 23:01N 30°11' W 093°19'1 2.9
2017-Sep-16 22:30N 30°09' W 093°20'2 4.7
2017-Sep-16 22:01N 30°11' W 093°18'2 4.0
2017-Sep-16 21:31N 30°12' W 093°16'1 1.7
2017-Sep-16 21:01N 30°13' W 093°15'0 0.6
2017-Sep-16 20:30N 30°13' W 093°15'0 0.0
2017-Sep-16 19:59N 30°13' W 093°15'0 0.0
2017-Sep-16 19:21N 30°13' W 093°15'0 0.0
2017-Sep-16 19:00N 30°13' W 093°15'0 0.0
2017-Sep-16 18:30N 30°13' W 093°15'0 0.0
2017-Sep-16 18:01N 30°13' W 093°15'0 0.0
2017-Sep-16 17:31N 30°13' W 093°15'0 0.0
2017-Sep-16 17:00N 30°13' W 093°15'0 0.0
2017-Sep-16 16:31N 30°13' W 093°15'0 0.0
2017-Sep-16 16:01N 30°13' W 093°15'0 0.0
2017-Sep-16 15:31N 30°13' W 093°15'0 0.0
2017-Sep-16 15:00N 30°13' W 093°15'0 0.0
2017-Sep-16 14:31N 30°13' W 093°15'0 0.0
2017-Sep-16 14:01N 30°13' W 093°15'0 0.0
2017-Sep-16 13:31N 30°13' W 093°15'0 0.0
2017-Sep-16 13:00N 30°13' W 093°15'0 0.0
2017-Sep-16 12:30N 30°13' W 093°15'0 0.0
2017-Sep-16 12:00N 30°13' W 093°15'0 0.0
2017-Sep-16 11:30N 30°13' W 093°15'0 0.4
2017-Sep-16 11:00N 30°13' W 093°15'0 0.0
2017-Sep-16 10:30N 30°13' W 093°15'0 0.0
2017-Sep-16 10:01N 30°13' W 093°15'0 0.0
2017-Sep-16 09:31N 30°13' W 093°15'0 0.3
2017-Sep-16 09:00N 30°13' W 093°15'0 0.6
2017-Sep-16 08:30N 30°13' W 093°15'1 1.7
2017-Sep-16 08:00N 30°12' W 093°16'2 4.8
2017-Sep-16 07:30N 30°11' W 093°19'2 3.9
2017-Sep-16 07:01N 30°09' W 093°20'1 1.8
2017-Sep-16 06:30N 30°08' W 093°20'1 2.9
2017-Sep-16 06:00N 30°10' W 093°19'4 7.8
2017-Sep-16 05:30N 30°12' W 093°16'1 1.3
2017-Sep-16 05:00N 30°13' W 093°15'0 0.0
2017-Sep-16 04:30N 30°13' W 093°15'0 0.0
2017-Sep-16 04:01N 30°13' W 093°15'0 0.0
2017-Sep-16 03:31N 30°13' W 093°15'0 0.0
2017-Sep-16 03:01N 30°13' W 093°15'0 0.0
2017-Sep-16 02:30N 30°13' W 093°15'0 0.0
2017-Sep-16 02:00N 30°13' W 093°15'0 0.0
2017-Sep-16 01:28N 30°13' W 093°15'0 0.0
2017-Sep-16 01:01N 30°13' W 093°15'0 0.0
2017-Sep-16 00:30N 30°13' W 093°15'0 0.0
2017-Sep-16 00:00N 30°13' W 093°15'0 0.0
2017-Sep-15 23:30N 30°13' W 093°15'0 0.0
2017-Sep-15 23:00N 30°13' W 093°15'0 0.0
2017-Sep-15 22:30N 30°13' W 093°15'0 0.0
2017-Sep-15 22:00N 30°13' W 093°15'0 0.0
2017-Sep-15 21:30N 30°13' W 093°15'0 0.0
2017-Sep-15 21:01N 30°13' W 093°15'0 0.0
2017-Sep-15 20:31N 30°13' W 093°15'0 0.0
2017-Sep-15 20:00N 30°13' W 093°15'4 7.1
2017-Sep-15 19:30N 30°11' W 093°19'4 8.3
2017-Sep-15 19:00N 30°07' W 093°20'1 2.2
2017-Sep-15 18:31N 30°08' W 093°20'3 5.2
2017-Sep-15 18:00N 30°10' W 093°19'2 3.7
2017-Sep-15 17:30N 30°12' W 093°18'2 4.3
2017-Sep-15 17:01N 30°13' W 093°16'1 1.7
2017-Sep-15 16:31N 30°14' W 093°15'0 0.3
2017-Sep-15 16:00N 30°14' W 093°15'0 0.0
2017-Sep-15 15:30N 30°14' W 093°15'0 0.0
2017-Sep-15 15:01N 30°14' W 093°15'0 0.0
2017-Sep-15 14:30N 30°14' W 093°15'0 0.0
2017-Sep-15 14:00N 30°14' W 093°15'1 1.5
2017-Sep-15 13:30N 30°13' W 093°16'1 1.0
2017-Sep-15 13:00N 30°13' W 093°15'0 0.0
2017-Sep-15 12:30N 30°13' W 093°15'0 0.0
2017-Sep-15 12:01N 30°13' W 093°15'0 0.0
2017-Sep-15 11:30N 30°13' W 093°15'0 0.0
2017-Sep-15 11:01N 30°13' W 093°15'0 0.0
2017-Sep-15 10:31N 30°13' W 093°15'0 0.0
2017-Sep-15 10:00N 30°13' W 093°15'0 0.0
2017-Sep-15 09:31N 30°13' W 093°15'0 0.0
2017-Sep-15 09:00N 30°13' W 093°15'0 0.0
2017-Sep-15 08:30N 30°13' W 093°15'0 0.0
2017-Sep-15 08:01N 30°13' W 093°15'0 0.0
2017-Sep-15 07:30N 30°13' W 093°15'0 0.0
2017-Sep-15 07:01N 30°13' W 093°15'0 0.0
2017-Sep-15 06:30N 30°13' W 093°15'0 0.0
2017-Sep-15 06:00N 30°13' W 093°15'0 0.0
2017-Sep-15 05:31N 30°13' W 093°15'0 0.0
2017-Sep-15 05:01N 30°13' W 093°15'0 0.0
2017-Sep-15 04:30N 30°13' W 093°15'0 0.0
2017-Sep-15 04:01N 30°13' W 093°15'0 0.0
2017-Sep-15 03:30N 30°13' W 093°15'0 0.0
2017-Sep-15 03:01N 30°13' W 093°15'0 0.0
2017-Sep-15 02:31N 30°13' W 093°15'0 0.0
2017-Sep-15 02:01N 30°13' W 093°15'0 0.0
2017-Sep-15 01:30N 30°13' W 093°15'0 0.0
2017-Sep-15 01:00N 30°13' W 093°15'0 0.0
2017-Sep-15 00:30N 30°13' W 093°15'0 0.0
2017-Sep-15 00:00N 30°13' W 093°15'0 0.0
2017-Sep-14 23:31N 30°13' W 093°15'0 0.0
2017-Sep-14 23:00N 30°13' W 093°15'0 0.0
2017-Sep-14 22:30N 30°13' W 093°15'0 0.0
2017-Sep-14 22:00N 30°13' W 093°15'0 0.0
2017-Sep-14 21:30N 30°13' W 093°15'0 0.0
2017-Sep-14 21:01N 30°13' W 093°15'0 0.0
2017-Sep-14 20:31N 30°13' W 093°15'0 0.0
2017-Sep-14 20:00N 30°13' W 093°15'0 0.0
2017-Sep-14 19:31N 30°13' W 093°15'0 0.0
2017-Sep-14 19:00N 30°13' W 093°15'0 0.0
2017-Sep-14 18:30N 30°13' W 093°15'0 0.0
2017-Sep-14 18:00N 30°13' W 093°15'0 0.0
2017-Sep-14 17:31N 30°13' W 093°15'0 0.0
2017-Sep-14 17:01N 30°13' W 093°15'0 0.0
2017-Sep-14 16:30N 30°13' W 093°15'0 0.0
2017-Sep-14 16:01N 30°13' W 093°15'0 0.0
2017-Sep-14 15:30N 30°13' W 093°15'0 0.0
2017-Sep-14 15:00N 30°13' W 093°15'0 0.0
2017-Sep-14 14:30N 30°13' W 093°15'0 0.0
2017-Sep-14 14:00N 30°13' W 093°15'0 0.0
2017-Sep-14 13:30N 30°13' W 093°15'0 0.0
2017-Sep-14 12:56N 30°13' W 093°15'0 0.0
2017-Sep-14 12:30N 30°13' W 093°15'0 0.0
2017-Sep-14 12:01N 30°13' W 093°15'0 0.0
2017-Sep-14 11:30N 30°13' W 093°15'0 0.0
2017-Sep-14 11:00N 30°13' W 093°15'0 0.0
2017-Sep-14 10:30N 30°13' W 093°15'0 0.0
2017-Sep-14 10:00N 30°13' W 093°15'0 0.0
2017-Sep-14 09:29N 30°13' W 093°15'1 1.1
2017-Sep-14 09:00N 30°13' W 093°16'1 2.1
2017-Sep-14 08:30N 30°14' W 093°15'0 0.0
2017-Sep-14 08:00N 30°14' W 093°15'0 0.1
2017-Sep-14 07:30N 30°14' W 093°15'1 1.4
2017-Sep-14 07:00N 30°13' W 093°15'1 2.7
2017-Sep-14 06:30N 30°12' W 093°16'3 5.5
2017-Sep-14 06:01N 30°11' W 093°19'2 3.4
2017-Sep-14 05:30N 30°09' W 093°20'3 5.4
2017-Sep-14 05:00N 30°07' W 093°20'2 4.7
2017-Sep-14 04:30N 30°04' W 093°20'4 8.8
2017-Sep-14 04:00N 30°09' W 093°20'4 8.5
2017-Sep-14 03:30N 30°12' W 093°17'2 3.3
2017-Sep-14 03:01N 30°13' W 093°15'0 0.0
2017-Sep-14 02:30N 30°13' W 093°15'0 0.0
2017-Sep-14 02:01N 30°13' W 093°15'0 0.0
2017-Sep-14 01:30N 30°13' W 093°15'0 0.0
2017-Sep-14 01:01N 30°13' W 093°15'0 0.0
2017-Sep-14 00:30N 30°13' W 093°15'0 0.0
2017-Sep-14 00:00N 30°13' W 093°15'0 0.0
2017-Sep-13 23:31N 30°13' W 093°15'  

Dump ship's entire track history